Time;durP1;ratioP1;P1;durP2;ratioP2;P2;SDS_P1;SDS_P2;PMS_P1;PMS_P2;Temp;Humidity;BMP_temperature;BMP_pressure;BME280_temperature;BME280_humidity;BME280_pressure;Samples;Min_cycle;Max_cycle;Signal;HPM_P1;HPM_P2
2022/11/25 00:00:32;;;;;;;31.05;4.65;;;;;;;8.53;100.00;100759.59;4895938;29;20032;-37
2022/11/25 00:02:57;;;;;;;31.75;5.47;;;;;;;8.52;100.00;100762.44;4905708;29;20032;-38
2022/11/25 00:05:25;;;;;;;23.92;4.90;;;;;;;8.54;100.00;100766.63;4911200;29;20028;-35
2022/11/25 00:07:50;;;;;;;44.60;5.93;;;;;;;8.56;100.00;100771.81;4896343;29;20491;-37
2022/11/25 00:10:16;;;;;;;32.85;5.28;;;;;;;8.54;100.00;100769.28;4915633;29;20032;-42
2022/11/25 00:12:41;;;;;;;34.88;5.70;;;;;;;8.57;100.00;100766.25;4916601;29;20043;-42
2022/11/25 00:15:07;;;;;;;24.25;4.80;;;;;;;8.61;100.00;100757.88;4917778;29;20032;-42
2022/11/25 00:17:32;;;;;;;39.33;5.72;;;;;;;8.60;100.00;100761.56;4915022;29;20036;-43
2022/11/25 00:20:00;;;;;;;26.25;5.10;;;;;;;8.60;100.00;100761.56;4901807;29;20029;-44
2022/11/25 00:22:26;;;;;;;29.73;5.45;;;;;;;8.59;100.00;100763.44;4914244;29;20024;-43
2022/11/25 00:24:51;;;;;;;27.00;4.45;;;;;;;8.62;100.00;100767.63;4913730;29;20051;-43
2022/11/25 00:27:16;;;;;;;42.92;5.38;;;;;;;8.63;100.00;100756.69;4896817;29;20021;-43
2022/11/25 00:29:41;;;;;;;32.53;5.63;;;;;;;8.65;100.00;100761.91;4914602;29;20040;-43
2022/11/25 00:32:07;;;;;;;24.00;4.50;;;;;;;8.67;100.00;100759.88;4913558;29;20497;-42
2022/11/25 00:34:32;;;;;;;23.95;4.72;;;;;;;8.66;100.00;100767.09;4917455;29;20044;-42
2022/11/25 00:36:57;;;;;;;25.88;4.78;;;;;;;8.70;100.00;100765.75;4918099;29;20080;-43
2022/11/25 00:39:24;;;;;;;33.38;4.72;;;;;;;8.67;100.00;100773.31;4911995;29;20040;-43
2022/11/25 00:44:40;;;;;;;34.47;5.15;;;;;;;8.66;100.00;100780.53;4904265;29;20110;-43
2022/11/25 00:47:16;;;;;;;32.90;5.22;;;;;;;8.67;100.00;100778.66;4913613;29;20040;-42
2022/11/25 00:49:47;;;;;;;37.58;6.38;;;;;;;8.66;100.00;100775.16;4918243;29;20024;-39
2022/11/25 00:52:17;;;;;;;26.08;5.60;;;;;;;8.65;100.00;100784.19;4914250;29;20037;-40
2022/11/25 00:54:46;;;;;;;25.10;5.57;;;;;;;8.64;100.00;100785.22;4914267;29;20043;-39
2022/11/25 00:57:12;;;;;;;33.00;6.65;;;;;;;8.64;100.00;100785.22;4918054;29;20043;-40
2022/11/25 00:59:38;;;;;;;24.83;6.90;;;;;;;8.64;100.00;100784.38;4915381;29;20039;-38
2022/11/25 01:02:03;;;;;;;30.92;6.65;;;;;;;8.64;100.00;100784.38;4914615;29;20032;-36
2022/11/25 01:04:28;;;;;;;34.03;7.85;;;;;;;8.65;100.00;100783.38;4917312;29;20163;-36
2022/11/25 01:06:55;;;;;;;27.10;7.65;;;;;;;8.64;100.00;100784.38;4915648;29;20051;-38
2022/11/25 01:09:21;;;;;;;29.50;7.35;;;;;;;8.63;100.00;100780.00;4914372;29;20032;-36
2022/11/25 01:11:50;;;;;;;40.42;7.18;;;;;;;8.62;100.00;100775.66;4911007;29;20079;-36
2022/11/25 01:14:15;;;;;;;34.20;8.50;;;;;;;8.62;100.00;100784.53;4913951;29;20036;-36
2022/11/25 01:16:41;;;;;;;25.02;7.60;;;;;;;8.62;100.00;100789.06;4896388;29;20058;-36
2022/11/25 01:19:06;;;;;;;27.77;8.80;;;;;;;8.63;100.00;100790.75;4913741;29;20250;-35
2022/11/25 01:21:33;;;;;;;44.60;9.55;;;;;;;8.61;100.00;100790.06;4913761;29;20039;-35
2022/11/25 01:24:00;;;;;;;35.70;9.13;;;;;;;8.64;100.00;100781.69;4913787;29;20079;-35
2022/11/25 01:26:26;;;;;;;38.47;8.18;;;;;;;8.65;100.00;100778.84;4914064;29;20035;-35
2022/11/25 01:28:57;;;;;;;36.65;8.60;;;;;;;8.62;100.00;100767.63;4913464;29;20024;-34
2022/11/25 01:31:24;;;;;;;24.85;7.25;;;;;;;8.61;100.00;100776.66;4909913;29;20500;-36
2022/11/25 01:34:16;;;;;;;34.97;7.53;;;;;;;8.61;100.00;100771.28;4899992;29;20102;-36
2022/11/25 01:36:42;;;;;;;35.85;7.93;;;;;;;8.62;100.00;100772.97;4908752;29;20255;-38
2022/11/25 01:39:07;;;;;;;31.05;7.50;;;;;;;8.61;100.00;100787.38;4913251;29;20188;-36
2022/11/25 01:41:33;;;;;;;41.40;7.72;;;;;;;8.59;100.00;100794.78;4908346;29;20032;-37
2022/11/25 01:44:14;;;;;;;40.45;7.22;;;;;;;8.60;100.00;100788.41;4913380;29;20028;-37
2022/11/25 01:46:41;;;;;;;28.88;6.75;;;;;;;8.60;100.00;100789.22;4913572;29;20035;-35
2022/11/25 01:49:11;;;;;;;33.60;6.53;;;;;;;8.55;100.00;100783.53;4913168;29;20036;-36
2022/11/25 01:51:44;;;;;;;24.60;6.10;;;;;;;8.57;100.00;100793.09;4914470;29;20032;-36
2022/11/25 01:54:13;;;;;;;28.00;6.00;;;;;;;8.53;100.00;100786.41;4892319;29;20032;-35
2022/11/25 01:56:49;;;;;;;27.88;4.70;;;;;;;8.52;100.00;100776.66;4890954;29;20032;-33
2022/11/25 01:59:15;;;;;;;28.48;5.22;;;;;;;8.50;100.00;100777.84;4913542;29;20047;-35
2022/11/25 02:01:40;;;;;;;30.60;4.55;;;;;;;8.50;100.00;100785.88;4928078;29;20035;-35
2022/11/25 02:04:06;;;;;;;30.73;4.32;;;;;;;8.50;100.00;100786.72;4912493;29;20036;-36
2022/11/25 02:06:36;;;;;;;28.00;4.30;;;;;;;8.51;100.00;100788.41;4894887;29;20024;-34
2022/11/25 02:09:05;;;;;;;25.23;4.35;;;;;;;8.51;100.00;100787.59;4928315;29;20375;-33
2022/11/25 02:11:32;;;;;;;20.35;4.30;;;;;;;8.51;100.00;100791.09;4913848;29;20078;-35
2022/11/25 02:13:58;;;;;;;18.77;3.58;;;;;;;8.50;100.00;100786.72;4916688;29;20047;-35
2022/11/25 02:16:24;;;;;;;31.23;3.90;;;;;;;8.51;100.00;100796.47;4913748;29;20028;-34
2022/11/25 02:18:49;;;;;;;36.55;4.72;;;;;;;8.50;100.00;100791.25;4913438;29;20040;-35
2022/11/25 02:21:18;;;;;;;26.98;3.28;;;;;;;8.46;100.00;100782.72;4889585;29;20164;-34
2022/11/25 02:23:51;;;;;;;23.58;3.63;;;;;;;8.47;100.00;100780.88;4909583;29;20045;-35
2022/11/25 02:26:17;;;;;;;18.45;3.03;;;;;;;8.44;100.00;100782.06;4899872;29;20130;-35
2022/11/25 02:28:43;;;;;;;13.90;2.42;;;;;;;8.45;100.00;100782.88;4900325;29;20171;-35
2022/11/25 02:31:09;;;;;;;22.52;3.13;;;;;;;8.42;100.00;100784.06;4901080;29;20043;-36
2022/11/25 02:33:34;;;;;;;18.90;2.50;;;;;;;8.43;100.00;100783.06;4916998;29;20056;-35
2022/11/25 02:36:09;;;;;;;19.50;2.92;;;;;;;8.42;100.00;100780.53;4916912;29;20068;-35
2022/11/25 02:38:41;;;;;;;22.88;3.83;;;;;;;8.41;100.00;100798.47;4914289;29;20040;-37
2022/11/25 02:41:12;;;;;;;23.17;3.00;;;;;;;8.39;100.00;100796.94;4887894;29;20056;-35
2022/11/25 02:43:38;;;;;;;26.35;2.45;;;;;;;8.38;100.00;100796.13;4887957;29;20055;-34
2022/11/25 02:46:06;;;;;;;20.63;2.63;;;;;;;8.36;100.00;100806.16;4918870;29;20035;-34
2022/11/25 02:48:33;;;;;;;16.08;2.35;;;;;;;8.36;100.00;100804.31;4884417;29;20040;-36
2022/11/25 02:50:59;;;;;;;18.23;3.00;;;;;;;8.36;100.00;100811.53;4917557;29;20024;-35
2022/11/25 02:53:24;;;;;;;17.05;3.35;;;;;;;8.34;100.00;100803.63;4916360;29;20031;-36
2022/11/25 02:55:49;;;;;;;16.02;2.95;;;;;;;8.35;100.00;100796.44;4913768;29;20024;-34
2022/11/25 02:58:15;;;;;;;21.52;2.55;;;;;;;8.33;100.00;100803.81;4917997;29;20043;-35
2022/11/25 03:00:41;;;;;;;13.75;2.08;;;;;;;8.31;100.00;100798.63;4916500;29;20055;-36
2022/11/25 03:03:07;;;;;;;18.42;2.60;;;;;;;8.31;100.00;100806.66;4915471;29;20111;-35
2022/11/25 03:05:32;;;;;;;18.58;2.70;;;;;;;8.31;100.00;100808.50;4900686;29;20111;-37
2022/11/25 03:07:57;;;;;;;19.70;2.58;;;;;;;8.30;100.00;100805.00;4914875;29;20036;-36
2022/11/25 03:10:23;;;;;;;16.60;2.65;;;;;;;8.27;100.00;100808.03;4905768;29;20048;-36
2022/11/25 03:12:49;;;;;;;16.38;2.60;;;;;;;8.26;100.00;100808.19;4914166;29;20036;-38
2022/11/25 03:15:14;;;;;;;16.42;2.92;;;;;;;8.26;100.00;100821.56;4920375;29;20039;-37
2022/11/25 03:17:41;;;;;;;8.18;2.30;;;;;;;8.23;100.00;100825.44;4916044;29;20059;-35
2022/11/25 03:20:07;;;;;;;13.20;2.20;;;;;;;8.23;100.00;100829.97;4899631;29;20028;-34
2022/11/25 03:22:33;;;;;;;19.27;2.42;;;;;;;8.20;100.00;100828.44;4920000;29;20383;-35
2022/11/25 03:24:58;;;;;;;18.67;3.30;;;;;;;8.18;100.00;100829.63;4915799;29;20039;-34
2022/11/25 03:27:23;;;;;;;14.95;2.30;;;;;;;8.19;100.00;100832.16;4915279;29;20123;-36
2022/11/25 03:29:49;;;;;;;15.57;2.92;;;;;;;8.16;100.00;100831.63;4915116;29;20051;-35
2022/11/25 03:32:14;;;;;;;7.93;2.50;;;;;;;8.15;100.00;100836.16;4908671;29;20424;-35
2022/11/25 03:34:39;;;;;;;13.85;2.78;;;;;;;8.14;100.00;100845.22;4915783;29;20540;-37
2022/11/25 03:37:05;;;;;;;14.52;3.30;;;;;;;8.11;100.00;100838.34;4914585;29;20050;-35
2022/11/25 03:39:31;;;;;;;13.07;2.92;;;;;;;8.09;100.00;100856.41;4916232;29;20111;-35
2022/11/25 03:41:56;;;;;;;11.10;2.60;;;;;;;8.05;100.00;100847.03;4916886;29;20118;-36
2022/11/25 03:44:21;;;;;;;11.13;2.80;;;;;;;8.05;100.00;100855.06;4908787;29;20035;-35
2022/11/25 03:46:47;;;;;;;18.17;3.53;;;;;;;8.01;100.00;100856.41;4913454;29;20055;-35
2022/11/25 03:49:12;;;;;;;10.98;2.10;;;;;;;7.98;100.00;100848.72;4915200;29;20563;-35
2022/11/25 03:51:37;;;;;;;11.63;2.72;;;;;;;7.95;100.00;100857.06;4915016;29;20051;-34
2022/11/25 03:54:03;;;;;;;14.80;3.05;;;;;;;7.94;100.00;100855.38;4910221;29;20020;-34
2022/11/25 03:56:28;;;;;;;14.77;3.47;;;;;;;7.89;100.00;100847.00;4915482;29;20028;-34
2022/11/25 03:58:53;;;;;;;11.60;3.08;;;;;;;7.85;100.00;100851.84;4915304;29;20032;-35
2022/11/25 04:01:19;;;;;;;12.70;3.28;;;;;;;7.86;100.00;100858.06;4916269;29;20036;-35
2022/11/25 04:03:44;;;;;;;11.73;3.83;;;;;;;7.84;100.00;100865.41;4897444;29;20051;-37
2022/11/25 04:06:10;;;;;;;18.13;3.60;;;;;;;7.82;100.00;100868.28;4916000;29;20103;-37
2022/11/25 04:08:35;;;;;;;15.63;4.00;;;;;;;7.79;100.00;100865.06;4917511;29;20402;-35
2022/11/25 04:11:00;;;;;;;11.55;4.10;;;;;;;7.79;100.00;100868.56;4914037;29;20086;-35
2022/11/25 04:13:26;;;;;;;15.63;4.15;;;;;;;7.79;100.00;100862.38;4920127;29;20379;-35
2022/11/25 04:15:51;;;;;;;14.10;4.35;;;;;;;7.79;100.00;100862.38;4917241;29;20032;-34
2022/11/25 04:18:18;;;;;;;16.98;4.50;;;;;;;7.78;100.00;100869.59;4915385;29;20067;-34
2022/11/25 04:20:43;;;;;;;20.40;4.43;;;;;;;7.76;100.00;100874.25;4915406;29;20028;-35
2022/11/25 04:23:10;;;;;;;16.65;4.75;;;;;;;7.73;100.00;100879.13;4909719;29;20508;-35
2022/11/25 04:25:37;;;;;;;16.48;4.70;;;;;;;7.73;100.00;100889.84;4910351;29;20055;-35
2022/11/25 04:28:03;;;;;;;10.50;4.32;;;;;;;7.70;100.00;100883.78;4908929;29;20503;-35
2022/11/25 04:30:28;;;;;;;11.98;4.30;;;;;;;7.69;100.00;100878.63;4898224;29;20039;-34
2022/11/25 04:32:54;;;;;;;15.35;4.20;;;;;;;7.70;100.00;100886.47;4911069;29;20388;-36
2022/11/25 04:35:19;;;;;;;18.48;4.95;;;;;;;7.68;100.00;100904.53;4914201;29;20115;-36
2022/11/25 04:37:44;;;;;;;13.77;3.97;;;;;;;7.69;100.00;100911.59;4915608;29;20454;-35
2022/11/25 04:40:10;;;;;;;14.68;3.63;;;;;;;7.70;100.00;100913.25;4913981;29;20511;-34
2022/11/25 04:42:38;;;;;;;15.00;3.75;;;;;;;7.69;100.00;100911.59;4914829;29;20087;-35
2022/11/25 04:45:07;;;;;;;15.65;3.92;;;;;;;7.69;100.00;100916.13;4913057;29;20028;-37
2022/11/25 04:47:32;;;;;;;15.30;3.50;;;;;;;7.67;100.00;100913.59;4913122;29;20038;-34
2022/11/25 04:49:58;;;;;;;12.40;3.20;;;;;;;7.65;100.00;100904.88;4913070;29;20043;-36
2022/11/25 04:52:23;;;;;;;8.68;2.90;;;;;;;7.65;100.00;100914.75;4913066;29;20038;-35
2022/11/25 04:54:49;;;;;;;27.95;5.85;;;;;;;7.64;100.00;100919.28;4912841;29;20441;-35
2022/11/25 04:57:14;;;;;;;24.17;3.55;;;;;;;7.63;100.00;100917.56;4895520;29;20035;-38
2022/11/25 04:59:41;;;;;;;5.38;2.38;;;;;;;7.61;100.00;100924.09;4912204;29;20036;-36
2022/11/25 05:02:21;;;;;;;11.50;2.65;;;;;;;7.60;100.00;100923.25;4912383;29;20131;-36
2022/11/25 05:04:48;;;;;;;13.27;2.65;;;;;;;7.59;100.00;100932.31;4903343;29;20122;-35
2022/11/25 05:07:14;;;;;;;18.85;2.63;;;;;;;7.57;100.00;100923.59;4912498;29;20035;-36
2022/11/25 05:09:40;;;;;;;14.65;2.75;;;;;;;7.57;100.00;100928.09;4912172;29;20028;-36
2022/11/25 05:12:07;;;;;;;9.07;2.30;;;;;;;7.55;100.00;100924.75;4912086;29;20099;-37
2022/11/25 05:14:34;;;;;;;11.48;2.40;;;;;;;7.53;100.00;100930.28;4915104;29;20524;-34
2022/11/25 05:17:00;;;;;;;9.50;2.83;;;;;;;7.56;100.00;100935.31;4912178;29;20035;-35
2022/11/25 05:19:26;;;;;;;8.07;2.30;;;;;;;7.57;100.00;100941.50;4913582;29;20435;-35
2022/11/25 05:21:51;;;;;;;9.93;2.28;;;;;;;7.55;100.00;100947.00;4911330;29;20034;-35
2022/11/25 05:24:16;;;;;;;10.70;2.63;;;;;;;7.53;100.00;100951.69;4910916;29;20639;-35
2022/11/25 05:26:42;;;;;;;11.27;2.13;;;;;;;7.52;100.00;100963.38;4912446;29;20089;-34
2022/11/25 05:29:08;;;;;;;6.78;1.83;;;;;;;7.51;100.00;100966.25;4907969;29;20035;-35
2022/11/25 05:31:34;;;;;;;10.23;2.53;;;;;;;7.47;100.00;100966.53;4893813;29;20032;-36
2022/11/25 05:34:00;;;;;;;5.78;2.30;;;;;;;7.45;100.00;100967.69;4911743;29;20055;-36
2022/11/25 05:36:26;;;;;;;8.38;2.42;;;;;;;7.43;100.00;100964.34;4925417;29;20036;-36
2022/11/25 05:38:51;;;;;;;9.63;1.92;;;;;;;7.40;100.00;100970.03;4906210;29;20060;-33
2022/11/25 05:41:17;;;;;;;10.80;2.30;;;;;;;7.37;100.00;100971.19;4908386;29;20448;-38
2022/11/25 05:43:42;;;;;;;4.75;1.83;;;;;;;7.38;100.00;100972.03;4902488;29;20035;-37
2022/11/25 05:46:08;;;;;;;6.53;1.70;;;;;;;7.37;100.00;100973.00;4908500;29;20103;-36
2022/11/25 05:48:34;;;;;;;9.90;2.20;;;;;;;7.34;100.00;100976.00;4912827;29;20495;-37
2022/11/25 05:51:00;;;;;;;13.68;2.03;;;;;;;7.31;100.00;100977.16;4911956;29;20043;-36
2022/11/25 05:53:25;;;;;;;19.77;2.47;;;;;;;7.31;100.00;100976.31;4912228;29;20036;-36
2022/11/25 05:55:59;;;;;;;12.43;2.17;;;;;;;7.30;100.00;100969.31;4912161;29;20071;-36
2022/11/25 05:58:25;;;;;;;11.43;2.22;;;;;;;7.29;100.00;100978.31;4912873;29;20047;-34
2022/11/25 06:00:51;;;;;;;7.03;1.70;;;;;;;7.27;100.00;100981.16;4913646;29;20036;-36
2022/11/25 06:03:16;;;;;;;16.52;2.40;;;;;;;7.29;100.00;100983.66;4905030;29;20096;-34
2022/11/25 06:05:42;;;;;;;6.18;1.70;;;;;;;7.27;100.00;100981.16;4897315;29;20033;-34
2022/11/25 06:08:08;;;;;;;11.75;2.13;;;;;;;7.26;100.00;100987.50;4913965;29;20115;-34
2022/11/25 06:10:37;;;;;;;8.40;1.80;;;;;;;7.22;100.00;100984.31;4899618;29;20160;-36
2022/11/25 06:13:02;;;;;;;11.50;2.15;;;;;;;7.20;100.00;100986.28;4907347;29;20078;-35
2022/11/25 06:15:28;;;;;;;13.10;2.15;;;;;;;7.19;100.00;100989.97;4920389;29;20052;-35
2022/11/25 06:17:54;;;;;;;7.55;1.63;;;;;;;7.18;100.00;100984.75;4916625;29;20032;-35
2022/11/25 06:20:19;;;;;;;7.28;1.70;;;;;;;7.16;100.00;100992.97;4909252;29;20035;-35
2022/11/25 06:22:45;;;;;;;6.20;1.60;;;;;;;7.15;100.00;100996.63;4904921;29;20032;-36
2022/11/25 06:25:10;;;;;;;8.20;2.15;;;;;;;7.14;100.00;101002.97;4895234;29;20024;-35
2022/11/25 06:27:36;;;;;;;13.88;2.10;;;;;;;7.14;100.00;101012.84;4915012;29;20032;-34
2022/11/25 06:30:01;;;;;;;8.85;1.77;;;;;;;7.13;100.00;101014.66;4907420;29;20415;-35
2022/11/25 06:32:26;;;;;;;8.23;1.70;;;;;;;7.13;100.00;101017.34;4913313;29;20032;-36
2022/11/25 06:34:52;;;;;;;9.50;1.85;;;;;;;7.09;100.00;101016.00;4913819;29;20039;-36
2022/11/25 06:37:17;;;;;;;10.20;2.30;;;;;;;7.07;100.00;101012.63;4909405;29;20063;-35
2022/11/25 06:39:42;;;;;;;13.90;1.90;;;;;;;7.04;100.00;101012.94;4932774;29;20039;-37
2022/11/25 06:42:08;;;;;;;7.57;2.22;;;;;;;7.02;100.00;101025.63;4919724;29;20036;-35
2022/11/25 06:44:33;;;;;;;11.55;2.10;;;;;;;7.01;100.00;101023.94;4914002;29;20082;-35
2022/11/25 06:46:58;;;;;;;7.97;1.88;;;;;;;7.00;100.00;101036.50;4911795;29;20075;-35
2022/11/25 06:49:24;;;;;;;11.27;2.75;;;;;;;7.01;100.00;101034.66;4904023;29;20041;-34
2022/11/25 06:51:49;;;;;;;12.70;2.95;;;;;;;6.98;100.00;101043.00;4911743;29;20055;-37
2022/11/25 06:54:15;;;;;;;5.97;1.75;;;;;;;6.96;100.00;101048.50;4913484;29;20067;-35
2022/11/25 06:56:40;;;;;;;8.68;2.17;;;;;;;6.95;100.00;101051.31;4903750;29;20020;-35
2022/11/25 06:59:05;;;;;;;10.20;2.17;;;;;;;6.96;100.00;101051.16;4895072;29;20481;-37
2022/11/25 07:01:31;;;;;;;9.05;2.15;;;;;;;6.98;100.00;101061.72;4880094;29;20103;-34
2022/11/25 07:04:04;;;;;;;16.90;2.42;;;;;;;6.97;100.00;101060.88;4895499;29;20478;-36
2022/11/25 07:06:30;;;;;;;9.95;2.53;;;;;;;6.96;100.00;101063.72;4915311;29;20040;-35
2022/11/25 07:08:56;;;;;;;8.55;2.20;;;;;;;6.97;100.00;101060.03;4915189;29;20444;-35
2022/11/25 07:11:29;;;;;;;12.23;2.00;;;;;;;6.96;100.00;101071.72;4914151;29;20106;-36
2022/11/25 07:14:00;;;;;;;8.45;1.90;;;;;;;6.95;100.00;101065.56;4916764;29;20028;-37
2022/11/25 07:16:26;;;;;;;9.40;1.55;;;;;;;6.96;100.00;101075.25;4917560;29;20028;-35
2022/11/25 07:18:52;;;;;;;16.60;2.83;;;;;;;6.95;100.00;101078.06;4916316;29;20119;-37
2022/11/25 07:21:23;;;;;;;10.35;2.25;;;;;;;6.97;100.00;101084.09;4916916;29;20521;-36
2022/11/25 07:23:48;;;;;;;9.45;1.63;;;;;;;6.98;100.00;101083.97;4917035;29;20050;-35
2022/11/25 07:26:20;;;;;;;11.35;1.90;;;;;;;7.00;100.00;101083.78;4916777;29;20032;-35
2022/11/25 07:28:46;;;;;;;12.73;1.58;;;;;;;7.02;100.00;101090.69;4916596;29;20103;-35
2022/11/25 07:31:16;;;;;;;8.48;1.33;;;;;;;7.06;100.00;101087.69;4916505;29;20454;-36
2022/11/25 07:33:41;;;;;;;11.82;1.70;;;;;;;7.15;100.00;101098.34;4916146;29;20048;-38
2022/11/25 07:36:08;;;;;;;8.30;1.60;;;;;;;7.21;100.00;101100.41;4916339;29;20087;-38
2022/11/25 07:38:34;;;;;;;8.30;1.23;;;;;;;7.25;100.00;101104.44;4916516;29;20099;-36
2022/11/25 07:41:07;;;;;;;9.80;1.48;;;;;;;7.28;100.00;101100.63;4898781;29;20043;-36
2022/11/25 07:43:33;;;;;;;7.90;1.42;;;;;;;7.31;100.00;101099.47;4897160;29;20043;-35
2022/11/25 07:46:26;;;;;;;8.30;1.35;;;;;;;7.36;100.00;101110.56;4894931;29;20025;-37
2022/11/25 07:48:52;;;;;;;6.60;1.20;;;;;;;7.37;100.00;101115.78;4892987;29;20131;-35
2022/11/25 07:51:20;;;;;;;6.65;1.30;;;;;;;7.39;100.00;101118.28;4897266;29;20519;-34
2022/11/25 07:53:46;;;;;;;8.00;2.05;;;;;;;7.42;100.00;101123.31;4897549;29;20037;-34
2022/11/25 07:56:13;;;;;;;8.43;1.60;;;;;;;7.49;100.00;101135.13;4897318;29;20036;-35
2022/11/25 07:58:38;;;;;;;8.70;1.17;;;;;;;7.53;100.00;101136.50;4897591;29;20103;-35
2022/11/25 08:01:06;;;;;;;10.00;2.20;;;;;;;7.64;100.00;101132.72;4897036;29;20115;-35
2022/11/25 08:03:32;;;;;;;12.55;2.20;;;;;;;7.81;100.00;101139.88;4897753;29;20076;-37
2022/11/25 08:06:02;;;;;;;11.43;1.60;;;;;;;7.92;100.00;101141.44;4897234;29;20068;-35
2022/11/25 08:08:27;;;;;;;10.98;1.48;;;;;;;8.03;100.00;101143.91;4897335;29;20029;-34
2022/11/25 08:10:52;;;;;;;12.45;1.60;;;;;;;8.28;100.00;101152.06;4896796;29;20048;-35
2022/11/25 08:13:18;;;;;;;9.07;1.50;;;;;;;8.48;100.00;101148.19;4897051;29;20037;-35
2022/11/25 08:15:43;;;;;;;9.98;1.75;;;;;;;9.02;100.00;101151.38;4896864;29;20029;-35
2022/11/25 08:18:08;;;;;;;6.70;1.50;;;;;;;9.32;100.00;101149.09;4897270;29;20163;-35
2022/11/25 08:20:34;;;;;;;13.88;1.60;;;;;;;9.51;100.00;101144.41;4896603;29;20091;-35
2022/11/25 08:22:59;;;;;;;13.48;1.92;;;;;;;9.68;100.00;101146.91;4896723;29;20055;-36
2022/11/25 08:25:25;;;;;;;7.85;1.15;;;;;;;10.00;100.00;101133.59;4896856;29;20374;-36
2022/11/25 08:27:50;;;;;;;11.32;2.03;;;;;;;9.83;100.00;101135.50;4896699;29;20032;-34
2022/11/25 08:30:16;;;;;;;8.38;1.45;;;;;;;10.00;100.00;101141.66;4896626;29;20373;-38
2022/11/25 08:32:41;;;;;;;14.13;1.80;;;;;;;9.55;100.00;101146.56;4897049;29;20062;-36
2022/11/25 08:35:07;;;;;;;18.13;2.05;;;;;;;9.12;100.00;101169.19;4896646;29;20029;-35
2022/11/25 08:37:32;;;;;;;12.43;1.80;;;;;;;8.84;100.00;101169.44;4896646;29;20028;-35
2022/11/25 08:39:58;;;;;;;16.63;1.92;;;;;;;8.60;100.00;101182.78;4896634;29;20528;-35
2022/11/25 08:42:23;;;;;;;15.13;2.75;;;;;;;8.47;100.00;101173.31;4896123;29;20064;-35
2022/11/25 08:44:52;;;;;;;15.25;2.17;;;;;;;8.68;100.00;101189.00;4896464;29;20055;-35
2022/11/25 08:47:18;;;;;;;35.50;2.70;;;;;;;8.97;100.00;101185.09;4896488;29;20084;-33
2022/11/25 08:49:43;;;;;;;12.93;1.92;;;;;;;9.37;100.00;101195.13;4896476;29;20032;-35
2022/11/25 08:52:09;;;;;;;11.50;1.80;;;;;;;9.77;100.00;101192.59;4896382;29;20066;-35
2022/11/25 08:54:34;;;;;;;10.27;1.65;;;;;;;9.70;100.00;101187.06;4896367;29;20035;-35
2022/11/25 08:56:59;;;;;;;14.38;1.83;;;;;;;9.70;100.00;101189.75;4896071;29;20021;-38
2022/11/25 08:59:25;;;;;;;15.98;1.58;;;;;;;9.77;100.00;101198.84;4896163;29;20398;-35
2022/11/25 09:01:50;;;;;;;18.63;2.60;;;;;;;9.85;100.00;101204.22;4896435;29;20509;-35
2022/11/25 09:04:15;;;;;;;13.07;2.08;;;;;;;9.98;100.00;101205.53;4896131;29;20024;-36
2022/11/25 09:06:41;;;;;;;16.08;3.05;;;;;;;10.29;100.00;101209.25;4896240;29;20112;-36
2022/11/25 09:09:06;;;;;;;12.32;1.67;;;;;;;10.36;100.00;101216.63;4895949;29;20112;-38
2022/11/25 09:11:31;;;;;;;13.70;2.10;;;;;;;10.35;100.00;101223.00;4895976;29;20111;-38
2022/11/25 09:13:57;;;;;;;13.30;1.63;;;;;;;10.51;100.00;101212.22;4895638;29;20064;-38
2022/11/25 09:16:23;;;;;;;13.48;1.98;;;;;;;10.51;100.00;101215.75;4895254;29;20059;-35
2022/11/25 09:18:48;;;;;;;11.73;2.40;;;;;;;10.67;100.00;101217.53;4896078;29;20033;-35
2022/11/25 09:21:16;;;;;;;20.05;2.65;;;;;;;10.73;100.00;101222.22;4895704;29;20032;-36
2022/11/25 09:23:41;;;;;;;15.90;2.50;;;;;;;10.65;100.00;101227.63;4895666;29;20433;-38
2022/11/25 09:26:21;;;;;;;13.70;2.45;;;;;;;10.63;100.00;101237.72;4913393;29;20067;-35
2022/11/25 09:28:47;;;;;;;11.45;2.30;;;;;;;10.64;100.00;101244.81;4914161;29;20024;-35
2022/11/25 09:31:12;;;;;;;14.20;2.65;;;;;;;10.96;100.00;101248.41;4913514;29;20035;-36
2022/11/25 09:33:37;;;;;;;14.77;2.15;;;;;;;11.28;100.00;101247.41;4913813;29;20123;-35
2022/11/25 09:36:04;;;;;;;9.30;2.13;;;;;;;11.77;100.00;101248.94;4913696;29;20066;-35
2022/11/25 09:38:30;;;;;;;18.77;3.08;;;;;;;11.92;100.00;101255.25;4914068;29;20032;-36
2022/11/25 09:40:58;;;;;;;18.13;2.55;;;;;;;12.02;100.00;101253.16;4913994;29;20115;-36
2022/11/25 09:46:44;;;;;;;23.25;3.65;;;;;;;11.83;100.00;101262.56;4914082;29;20419;-35
2022/11/25 09:49:28;;;;;;;13.70;2.80;;;;;;;11.84;100.00;101274.19;4915331;29;20039;-38
2022/11/25 09:52:12;;;;;;;17.48;2.78;;;;;;;11.72;100.00;101284.56;4914160;29;20039;-35
2022/11/25 09:54:39;;;;;;;15.30;2.95;;;;;;;11.59;100.00;101277.03;4911542;29;20034;-36
2022/11/25 09:57:26;;;;;;;23.48;3.00;;;;;;;11.40;100.00;101288.25;4913809;29;20494;-35
2022/11/25 09:59:54;;;;;;;23.60;2.92;;;;;;;11.38;100.00;101290.31;4912928;29;20463;-34
2022/11/25 10:02:26;;;;;;;23.80;3.58;;;;;;;11.50;100.00;101296.13;4911214;29;20072;-35
2022/11/25 10:05:17;;;;;;;14.88;2.45;;;;;;;11.32;100.00;101297.25;4896634;29;20100;-38
2022/11/25 10:07:46;;;;;;;19.63;3.33;;;;;;;11.54;100.00;101306.41;4894519;29;20097;-36
2022/11/25 10:10:21;;;;;;;18.48;2.58;;;;;;;11.91;100.00;101307.53;4894493;29;20037;-35
2022/11/25 10:12:48;;;;;;;21.17;2.95;;;;;;;11.90;100.00;101316.66;4886620;29;20040;-34
2022/11/25 10:15:17;;;;;;;18.55;2.92;;;;;;;11.88;100.00;101312.47;4897217;29;20039;-36
2022/11/25 10:17:48;;;;;;;23.35;2.55;;;;;;;12.03;100.00;101318.75;4913880;29;20542;-35
2022/11/25 10:20:21;;;;;;;17.90;2.42;;;;;;;11.98;100.00;101319.31;4894559;29;20432;-36
2022/11/25 10:22:49;;;;;;;15.95;2.75;;;;;;;11.81;100.00;101323.91;4896452;29;20024;-35
2022/11/25 10:25:19;;;;;;;21.00;3.00;;;;;;;11.76;100.00;101322.78;4913936;29;20036;-35
2022/11/25 10:27:48;;;;;;;16.92;2.88;;;;;;;11.73;100.00;101331.22;4914651;29;20032;-35
2022/11/25 10:30:23;;;;;;;19.35;4.03;;;;;;;11.60;100.00;101327.25;4897250;29;20028;-37
2022/11/25 10:33:03;;;;;;;19.70;3.28;;;;;;;11.44;100.00;101335.41;4914354;29;20059;-36
2022/11/25 10:35:35;;;;;;;14.88;2.95;;;;;;;11.27;100.00;101336.50;4914202;29;20115;-37
2022/11/25 10:38:03;;;;;;;24.75;3.53;;;;;;;11.03;100.00;101335.56;4896914;29;20068;-35
2022/11/25 10:40:28;;;;;;;17.00;3.08;;;;;;;11.03;100.00;101338.25;4896533;29;20043;-35
2022/11/25 10:42:53;;;;;;;20.85;2.95;;;;;;;11.21;100.00;101352.34;4914841;29;20028;-34
2022/11/25 10:45:23;;;;;;;31.40;5.43;;;;;;;11.53;100.00;101358.63;4918167;29;20026;-35
2022/11/25 10:48:07;;;;;;;21.13;3.33;;;;;;;11.83;100.00;101353.41;4900910;29;20040;-35
2022/11/25 10:50:50;;;;;;;23.83;3.22;;;;;;;11.85;100.00;101359.47;4918450;29;20453;-36
2022/11/25 10:53:21;;;;;;;22.20;4.05;;;;;;;11.94;100.00;101361.13;4918403;29;20027;-39
2022/11/25 10:56:03;;;;;;;28.25;3.08;;;;;;;11.80;100.00;101369.97;4900878;29;20032;-36
2022/11/25 10:58:34;;;;;;;20.27;3.13;;;;;;;11.86;100.00;101369.28;4916370;29;20059;-35
2022/11/25 11:01:05;;;;;;;24.95;3.40;;;;;;;11.77;100.00;101381.94;4899812;29;20340;-36
2022/11/25 11:03:31;;;;;;;31.70;4.25;;;;;;;11.47;100.00;101383.56;4917096;29;20571;-37
2022/11/25 11:05:56;;;;;;;24.33;3.58;;;;;;;11.29;100.00;101389.19;4916897;29;20016;-36
2022/11/25 11:08:27;;;;;;;23.38;3.28;;;;;;;11.25;100.00;101400.50;4916832;29;20040;-37
2022/11/25 11:11:16;;;;;;;22.95;3.25;;;;;;;11.21;100.00;101403.53;4900484;29;20055;-37
2022/11/25 11:13:41;;;;;;;26.88;3.40;;;;;;;11.31;100.00;101407.91;4915813;29;20036;-38
2022/11/25 11:16:27;;;;;;;28.33;3.13;;;;;;;11.24;100.00;101407.72;4916703;29;20368;-37
2022/11/25 11:18:53;;;;;;;25.90;2.72;;;;;;;11.12;100.00;101409.13;4930583;29;20111;-36
2022/11/25 11:21:40;;;;;;;27.45;3.33;;;;;;;10.84;100.00;101422.13;4917249;29;20045;-35
2022/11/25 11:24:48;;;;;;;24.73;2.80;;;;;;;10.73;100.00;101426.00;4900698;29;20068;-37